Time;durP1;ratioP1;P1;durP2;ratioP2;P2;SDS_P1;SDS_P2;PMS_P1;PMS_P2;Temp;Humidity;BMP_temperature;BMP_pressure;BME280_temperature;BME280_humidity;BME280_pressure;Samples;Min_cycle;Max_cycle;Signal;HPM_P1;HPM_P2
2023/07/02 06:10:25;;;;;;;3.00;2.70;;;;;;;28.95;57.46;99275.71;86052;1301;545608;-67
2023/07/02 06:12:27;;;;;;;2.70;2.40;;;;;;;29.09;57.70;99284.46;87292;1288;138202;-66
2023/07/02 06:14:29;;;;;;;2.90;2.30;;;;;;;29.31;57.50;99287.17;87310;1292;22550;-70
2023/07/02 06:16:30;;;;;;;2.40;2.20;;;;;;;29.52;56.52;99282.87;87151;1287;137515;-72
2023/07/02 18:28:08;;;;;;;3.90;3.60;;;;;;;25.95;61.38;99179.64;85343;1307;545825;-68
2023/07/02 18:30:12;;;;;;;3.10;3.00;;;;;;;25.95;61.40;99183.05;90301;1279;22550;-69
2023/07/02 18:32:14;;;;;;;4.50;4.10;;;;;;;25.94;61.97;99185.74;90296;1285;136999;-65
2023/07/02 18:34:16;;;;;;;4.10;3.90;;;;;;;25.91;61.73;99187.06;90412;1285;22347;-65
2023/07/02 18:36:18;;;;;;;4.50;4.20;;;;;;;25.88;61.21;99187.52;90080;1273;136752;-66
2023/07/02 18:38:20;;;;;;;4.30;4.10;;;;;;;25.88;60.90;99186.89;90171;1287;23929;-68
2023/07/02 18:40:22;;;;;;;3.80;3.60;;;;;;;25.82;61.09;99183.02;90206;1288;137795;-64
2023/07/02 18:42:24;;;;;;;4.10;3.10;;;;;;;25.86;62.22;99194.91;90419;1283;158666;-67
2023/07/02 18:44:33;;;;;;;3.80;3.60;;;;;;;25.83;62.74;99199.34;90468;1284;138307;-66
2023/07/02 18:46:36;;;;;;;3.60;3.30;;;;;;;25.79;63.19;99203.19;90445;1284;22371;-67
2023/07/02 18:48:37;;;;;;;4.20;3.90;;;;;;;25.74;63.41;99204.25;90446;1269;136839;-64
2023/07/02 18:50:39;;;;;;;4.30;3.60;;;;;;;25.70;63.20;99205.63;90504;1269;22493;-67
2023/07/02 18:52:43;;;;;;;3.80;3.60;;;;;;;25.68;63.66;99204.27;90335;1281;137056;-68
2023/07/02 18:54:44;;;;;;;4.20;3.90;;;;;;;25.64;64.26;99205.27;90366;1275;22428;-67
2023/07/02 18:56:46;;;;;;;4.10;3.80;;;;;;;25.60;64.46;99206.27;90445;1283;137080;-70
2023/07/02 18:58:47;;;;;;;4.50;3.10;;;;;;;25.58;64.69;99207.39;90570;1283;22388;-66
2023/07/02 19:00:49;;;;;;;3.80;3.50;;;;;;;25.50;65.81;99207.48;90345;1284;136617;-66
2023/07/02 19:02:51;;;;;;;3.90;3.50;;;;;;;25.39;66.57;99205.93;90566;1284;22430;-66
2023/07/02 19:04:54;;;;;;;4.40;4.10;;;;;;;25.25;67.62;99204.67;90481;1283;138174;-65
2023/07/02 19:06:57;;;;;;;5.20;4.70;;;;;;;25.10;67.67;99211.48;90477;1279;22383;-67
2023/07/02 19:08:59;;;;;;;5.40;4.50;;;;;;;24.93;68.54;99203.55;90467;1283;138017;-65
2023/07/02 19:11:05;;;;;;;6.50;6.00;;;;;;;24.89;69.13;99212.22;90458;1284;23094;-65
2023/07/02 19:13:09;;;;;;;5.20;4.80;;;;;;;24.82;69.47;99214.64;90397;1284;137401;-64
2023/07/02 19:15:11;;;;;;;4.80;4.40;;;;;;;24.76;69.56;99216.91;90517;1283;22290;-65
2023/07/02 19:17:15;;;;;;;6.30;4.70;;;;;;;24.71;70.46;99218.89;90253;1278;137059;-67
2023/07/02 19:19:17;;;;;;;5.50;4.90;;;;;;;24.65;71.47;99218.62;90470;1284;22214;-68
2023/07/02 19:21:22;;;;;;;6.60;4.50;;;;;;;24.59;70.85;99225.77;90402;1284;138471;-64
2023/07/02 19:23:26;;;;;;;4.00;3.80;;;;;;;24.55;69.02;99222.36;90453;1284;22360;-65
2023/07/02 19:25:27;;;;;;;4.00;3.70;;;;;;;24.50;69.66;99216.36;90309;1284;137551;-67
2023/07/02 19:27:29;;;;;;;5.20;4.80;;;;;;;24.55;70.70;99226.24;90461;1285;22371;-66
2023/07/02 19:29:32;;;;;;;4.80;4.50;;;;;;;24.53;72.05;99229.20;90379;1285;138138;-66
2023/07/02 19:31:34;;;;;;;4.50;4.20;;;;;;;24.49;71.93;99230.38;90544;1285;22580;-64
2023/07/02 19:33:36;;;;;;;5.10;4.60;;;;;;;24.45;72.11;99235.20;90453;1272;138956;-66
2023/07/02 19:35:38;;;;;;;5.20;4.90;;;;;;;24.41;72.78;99241.12;90577;1285;22381;-66
2023/07/02 19:37:40;;;;;;;5.80;4.50;;;;;;;24.34;73.32;99244.92;90303;1273;137978;-66
2023/07/02 19:39:42;;;;;;;4.90;4.30;;;;;;;24.25;73.18;99250.02;90483;1284;22373;-69
2023/07/02 19:41:44;;;;;;;4.00;3.90;;;;;;;24.19;72.52;99255.33;90407;1284;136943;-64
2023/07/02 19:43:45;;;;;;;5.20;4.80;;;;;;;24.14;73.22;99256.89;90525;1284;22219;-65
2023/07/02 19:45:47;;;;;;;4.90;4.60;;;;;;;24.09;74.02;99257.33;90485;1272;137498;-64
2023/07/02 19:47:49;;;;;;;4.80;4.40;;;;;;;24.03;74.40;99259.14;90596;1285;22545;-65
2023/07/02 19:49:56;;;;;;;4.80;4.60;;;;;;;23.99;74.37;99265.66;90432;1285;136901;-63
2023/07/02 19:51:59;;;;;;;5.50;5.00;;;;;;;23.97;74.84;99265.00;90583;1276;22251;-66
2023/07/02 19:54:03;;;;;;;5.10;4.70;;;;;;;23.95;74.84;99268.45;90466;1283;137500;-67
2023/07/02 19:56:06;;;;;;;5.10;4.80;;;;;;;23.93;75.02;99269.48;90493;1268;137304;-65
2023/07/02 19:58:08;;;;;;;5.90;5.30;;;;;;;23.93;74.55;99274.43;90845;1276;23248;-64
2023/07/02 20:00:10;;;;;;;6.10;4.90;;;;;;;23.93;75.36;99274.66;90793;1277;138837;-65
2023/07/02 20:02:19;;;;;;;4.80;4.30;;;;;;;23.90;75.74;99276.67;90828;1262;22357;-67
2023/07/02 20:04:21;;;;;;;4.20;3.90;;;;;;;23.85;76.04;99282.89;90822;1276;137933;-66
2023/07/02 20:06:23;;;;;;;5.60;5.10;;;;;;;23.84;76.50;99286.20;90881;1278;22297;-66
2023/07/02 20:08:25;;;;;;;5.10;4.60;;;;;;;23.80;77.03;99284.75;90805;1277;137037;-64
2023/07/02 20:10:27;;;;;;;4.20;4.00;;;;;;;23.74;77.33;99289.13;90898;1278;22926;-64
2023/07/02 20:12:29;;;;;;;5.60;5.20;;;;;;;23.69;77.54;99287.11;90779;1279;137766;-64
2023/07/02 20:14:30;;;;;;;7.30;5.00;;;;;;;23.63;77.34;99286.51;90904;1281;22202;-64
2023/07/02 20:16:32;;;;;;;5.20;4.90;;;;;;;23.57;77.01;99287.17;90699;1278;137795;-63
2023/07/02 20:18:34;;;;;;;6.30;4.90;;;;;;;23.53;77.39;99290.29;90917;1278;23728;-66
2023/07/02 20:20:36;;;;;;;5.50;5.10;;;;;;;23.48;77.80;99290.10;90798;1279;138169;-66
2023/07/02 20:22:38;;;;;;;6.40;5.20;;;;;;;23.45;78.52;99289.77;90879;1281;22240;-65
2023/07/02 20:24:39;;;;;;;5.60;4.60;;;;;;;23.45;78.67;99290.48;90782;1269;138633;-66
2023/07/02 20:26:41;;;;;;;5.50;5.10;;;;;;;23.49;78.33;99288.72;90853;1278;22219;-66
2023/07/02 20:28:43;;;;;;;4.90;4.50;;;;;;;23.54;78.57;99292.88;90759;1278;139251;-66
2023/07/02 20:30:44;;;;;;;5.00;4.70;;;;;;;23.54;78.32;99290.01;90875;1278;22248;-64
2023/07/02 20:32:46;;;;;;;3.70;3.60;;;;;;;23.49;78.37;99288.56;90842;1278;139001;-64
2023/07/02 20:34:48;;;;;;;5.30;4.80;;;;;;;23.44;78.82;99290.23;90827;1276;23044;-64
2023/07/02 20:36:50;;;;;;;5.20;4.70;;;;;;;23.39;78.79;99286.95;90782;1278;136988;-68
2023/07/02 20:38:52;;;;;;;5.50;5.20;;;;;;;23.29;79.62;99287.83;90909;1278;22183;-63
2023/07/02 20:41:01;;;;;;;7.70;5.50;;;;;;;23.22;80.34;99287.90;90797;1279;137350;-66
2023/07/02 20:43:04;;;;;;;7.70;5.40;;;;;;;23.17;80.84;99286.89;90941;1278;23050;-67
2023/07/02 20:45:09;;;;;;;5.70;5.30;;;;;;;23.13;81.00;99280.58;90786;1276;137901;-67
2023/07/02 20:47:10;;;;;;;7.40;5.80;;;;;;;23.15;82.03;99282.37;90871;1280;22280;-65
2023/07/02 20:49:19;;;;;;;5.70;5.40;;;;;;;23.08;82.09;99274.10;90808;1284;138515;-69
2023/07/02 20:51:21;;;;;;;7.10;6.00;;;;;;;23.13;82.18;99278.30;90935;1279;22190;-65
2023/07/02 20:53:23;;;;;;;4.90;4.60;;;;;;;23.13;82.44;99275.64;90758;1278;138466;-68
2023/07/02 20:55:24;;;;;;;6.50;6.00;;;;;;;23.10;82.02;99276.29;90918;1278;22977;-67
2023/07/02 20:57:26;;;;;;;5.30;5.00;;;;;;;23.09;82.68;99282.50;90786;1284;137565;-64
2023/07/02 20:59:28;;;;;;;5.90;5.40;;;;;;;23.06;82.99;99281.56;90925;1278;22343;-65
2023/07/02 21:01:29;;;;;;;5.60;5.30;;;;;;;23.05;83.28;99287.20;90818;1277;137672;-67
2023/07/02 21:03:32;;;;;;;5.00;4.50;;;;;;;23.03;83.54;99288.52;90912;1278;22931;-64
2023/07/02 21:05:36;;;;;;;6.30;5.70;;;;;;;23.02;83.75;99291.02;90797;1284;138852;-66
2023/07/02 21:07:37;;;;;;;4.40;4.10;;;;;;;22.99;84.22;99290.35;90914;1272;22199;-65
2023/07/02 21:09:39;;;;;;;5.00;4.70;;;;;;;22.95;83.62;99294.11;90811;1283;138138;-65
2023/07/02 21:11:41;;;;;;;5.40;5.00;;;;;;;22.95;83.90;99291.34;90870;1283;22278;-66
2023/07/02 21:13:43;;;;;;;5.40;4.90;;;;;;;22.94;84.30;99292.44;90815;1284;138170;-64
2023/07/02 21:15:55;;;;;;;5.40;5.10;;;;;;;22.92;84.42;99299.54;90948;1276;22233;-65
2023/07/02 21:17:56;;;;;;;9.70;5.30;;;;;;;22.90;84.63;99297.77;90816;1282;137489;-65
2023/07/02 21:19:58;;;;;;;4.90;4.60;;;;;;;22.88;85.00;99293.52;90918;1277;22486;-66
2023/07/02 21:22:00;;;;;;;6.30;6.00;;;;;;;22.84;85.40;99290.92;90842;1281;138669;-63
2023/07/02 21:24:02;;;;;;;5.90;4.70;;;;;;;22.82;85.62;99292.03;90935;1276;22190;-63
2023/07/02 21:26:04;;;;;;;5.30;4.80;;;;;;;22.83;85.71;99291.47;90918;1281;22451;-65
2023/07/02 21:28:06;;;;;;;5.20;4.80;;;;;;;22.85;85.93;99287.75;90779;1280;137916;-66
2023/07/02 21:30:08;;;;;;;4.80;4.60;;;;;;;22.83;86.13;99288.48;90844;1278;22376;-64
2023/07/02 21:32:09;;;;;;;5.30;4.90;;;;;;;22.80;86.42;99287.34;90793;1278;141240;-65
2023/07/02 21:34:11;;;;;;;5.90;5.50;;;;;;;22.77;86.65;99289.23;90917;1278;22193;-64
2023/07/02 21:36:15;;;;;;;5.00;4.60;;;;;;;22.74;86.73;99286.77;90717;1277;138229;-65
2023/07/02 21:38:16;;;;;;;6.10;5.20;;;;;;;22.73;86.97;99290.16;90896;1278;22980;-64
2023/07/02 21:40:18;;;;;;;5.80;5.10;;;;;;;22.72;87.15;99294.73;90802;1280;137698;-66
2023/07/02 21:42:20;;;;;;;5.90;5.50;;;;;;;22.75;86.93;99293.77;90978;1278;22303;-65
2023/07/02 21:44:21;;;;;;;6.40;5.80;;;;;;;22.76;87.20;99294.13;90776;1275;137278;-66
2023/07/02 21:46:23;;;;;;;6.00;5.60;;;;;;;22.72;87.29;99293.92;90974;1276;22222;-65
2023/07/02 21:48:25;;;;;;;6.10;5.70;;;;;;;22.70;86.43;99298.13;90869;1265;138270;-64
2023/07/02 21:50:26;;;;;;;5.40;5.00;;;;;;;22.72;86.66;99302.51;90950;1275;22219;-64
2023/07/02 21:52:28;;;;;;;5.80;5.40;;;;;;;22.77;86.71;99306.83;90839;1278;138176;-65
2023/07/02 21:54:30;;;;;;;5.70;5.40;;;;;;;22.83;87.27;99307.98;91006;1275;22887;-64
2023/07/02 21:56:32;;;;;;;5.20;4.80;;;;;;;22.84;87.05;99310.20;90862;1278;137829;-63
2023/07/02 21:58:34;;;;;;;6.80;6.20;;;;;;;22.82;87.21;99311.73;90964;1283;22339;-65
2023/07/02 22:00:35;;;;;;;7.30;6.60;;;;;;;22.80;87.57;99317.17;90806;1275;138132;-65
2023/07/02 22:02:37;;;;;;;6.10;5.50;;;;;;;22.76;87.32;99323.10;90974;1282;22201;-65
2023/07/02 22:04:39;;;;;;;5.50;5.20;;;;;;;22.76;87.16;99331.69;90860;1278;138632;-64
2023/07/02 22:06:41;;;;;;;6.10;5.70;;;;;;;22.79;87.73;99335.11;90985;1282;22302;-63
2023/07/02 22:08:42;;;;;;;6.00;5.50;;;;;;;22.82;87.98;99338.49;90848;1275;138239;-65
2023/07/02 22:10:45;;;;;;;6.70;6.20;;;;;;;22.81;88.50;99344.70;90982;1282;22186;-64
2023/07/02 22:12:47;;;;;;;5.00;4.70;;;;;;;22.75;88.62;99349.13;90859;1275;139185;-64
2023/07/02 22:14:49;;;;;;;6.90;4.90;;;;;;;22.74;88.70;99354.73;90960;1275;22281;-64
2023/07/02 22:16:51;;;;;;;6.10;5.50;;;;;;;22.75;89.19;99357.88;90852;1275;138351;-64
2023/07/02 22:18:53;;;;;;;7.50;6.00;;;;;;;22.75;89.17;99364.30;90942;1281;22377;-65
2023/07/02 22:20:54;;;;;;;4.10;3.90;;;;;;;22.74;88.54;99364.90;90843;1278;139017;-65
2023/07/02 22:22:57;;;;;;;6.40;5.80;;;;;;;22.77;88.16;99368.17;90898;1276;22175;-63
2023/07/02 22:24:59;;;;;;;5.40;5.20;;;;;;;22.79;88.34;99370.66;90734;1281;138885;-64
2023/07/02 22:27:02;;;;;;;6.20;5.60;;;;;;;22.82;87.80;99372.50;90973;1276;22457;-64
2023/07/02 22:29:04;;;;;;;6.90;6.40;;;;;;;22.80;87.59;99378.06;90806;1263;139601;-65
2023/07/02 22:31:05;;;;;;;5.80;5.40;;;;;;;22.82;87.39;99379.89;90935;1278;22279;-64
2023/07/02 22:33:07;;;;;;;7.20;6.10;;;;;;;22.83;87.18;99381.28;90827;1275;138769;-64
2023/07/02 22:35:09;;;;;;;6.40;5.90;;;;;;;22.86;86.91;99380.53;90955;1282;22173;-64
2023/07/02 22:37:11;;;;;;;6.20;5.70;;;;;;;22.89;86.97;99380.70;90881;1283;137946;-64
2023/07/02 22:39:13;;;;;;;5.40;5.10;;;;;;;22.92;86.53;99378.73;90967;1276;23022;-65
2023/07/02 22:41:15;;;;;;;5.50;5.20;;;;;;;22.97;85.94;99379.36;90868;1275;139281;-66
2023/07/02 22:43:16;;;;;;;5.70;5.20;;;;;;;23.04;85.46;99378.41;90915;1276;22261;-65
2023/07/02 22:45:18;;;;;;;5.30;5.00;;;;;;;23.10;84.68;99380.55;90961;1276;138680;-65
2023/07/02 22:47:19;;;;;;;4.80;4.50;;;;;;;23.14;84.55;99381.95;91072;1273;23063;-65
2023/07/02 22:49:23;;;;;;;4.80;4.50;;;;;;;23.20;83.87;99380.23;90931;1272;138650;-65
2023/07/02 22:51:25;;;;;;;7.00;6.40;;;;;;;23.22;83.26;99375.09;91089;1280;22374;-64
2023/07/02 22:53:27;;;;;;;6.80;5.90;;;;;;;23.21;82.95;99380.06;90961;1278;137607;-67
2023/07/02 22:55:32;;;;;;;5.80;5.50;;;;;;;23.20;82.95;99379.91;91049;1273;22206;-65
2023/07/02 22:57:34;;;;;;;6.00;5.50;;;;;;;23.21;83.38;99378.48;90969;1272;139216;-65
2023/07/02 22:59:36;;;;;;;7.30;6.00;;;;;;;23.21;83.86;99379.41;91077;1276;22195;-68
2023/07/02 23:01:38;;;;;;;5.80;5.30;;;;;;;23.15;83.76;99383.25;90945;1273;138897;-64
2023/07/02 23:03:41;;;;;;;5.80;5.40;;;;;;;23.06;84.17;99385.99;91015;1275;22231;-65
2023/07/02 23:05:43;;;;;;;5.60;5.20;;;;;;;23.01;84.33;99388.70;90872;1270;139433;-66
2023/07/02 23:07:46;;;;;;;5.90;5.60;;;;;;;22.98;83.93;99391.41;91072;1280;22281;-65
2023/07/02 23:09:47;;;;;;;6.40;6.00;;;;;;;22.96;83.87;99392.52;90932;1272;137834;-65
2023/07/02 23:11:49;;;;;;;6.20;5.60;;;;;;;22.94;83.82;99399.66;91071;1274;22264;-65
2023/07/02 23:13:51;;;;;;;5.30;5.00;;;;;;;22.95;83.76;99403.35;90839;1275;139423;-66
2023/07/02 23:15:53;;;;;;;8.70;6.00;;;;;;;22.95;83.68;99403.58;90985;1273;22922;-64
2023/07/02 23:17:54;;;;;;;6.40;6.00;;;;;;;22.94;83.49;99404.34;90988;1262;138853;-64
2023/07/02 23:19:56;;;;;;;7.10;6.60;;;;;;;22.92;83.57;99402.09;91086;1275;22169;-63
2023/07/02 23:21:58;;;;;;;5.20;4.90;;;;;;;22.92;83.68;99398.06;90952;1274;137712;-63
2023/07/02 23:23:59;;;;;;;6.00;5.60;;;;;;;22.91;83.70;99397.30;91080;1277;22295;-65
2023/07/02 23:26:01;;;;;;;5.50;5.00;;;;;;;22.93;83.76;99398.53;91002;1275;137666;-64
2023/07/02 23:28:03;;;;;;;5.80;5.30;;;;;;;22.94;83.88;99402.50;90953;1273;140812;-64
2023/07/02 23:30:11;;;;;;;5.90;5.30;;;;;;;22.95;84.10;99406.61;91105;1272;24044;-64
2023/07/02 23:32:13;;;;;;;5.90;5.60;;;;;;;22.98;83.71;99411.30;90987;1273;139401;-65
2023/07/02 23:34:28;;;;;;;6.00;5.50;;;;;;;22.98;83.56;99414.34;91080;1278;22319;-63
2023/07/02 23:36:29;;;;;;;6.20;5.90;;;;;;;22.97;83.70;99413.33;90989;1275;139125;-66
2023/07/02 23:38:32;;;;;;;6.00;5.40;;;;;;;22.94;84.00;99412.38;91070;1276;22445;-64
2023/07/02 23:40:35;;;;;;;7.50;6.20;;;;;;;22.91;83.91;99411.82;91001;1280;140739;-64
2023/07/02 23:42:37;;;;;;;6.40;6.10;;;;;;;22.88;83.63;99411.38;91074;1275;22374;-65
2023/07/02 23:44:40;;;;;;;5.30;4.90;;;;;;;22.85;83.51;99413.59;90989;1275;138975;-63
2023/07/02 23:46:41;;;;;;;6.00;5.50;;;;;;;22.82;83.71;99412.77;91100;1276;23018;-65
2023/07/02 23:48:43;;;;;;;6.60;5.50;;;;;;;22.72;84.13;99414.14;90974;1278;137983;-64
2023/07/02 23:50:45;;;;;;;6.10;5.70;;;;;;;22.67;84.57;99410.63;91054;1273;22239;-67
2023/07/02 23:52:48;;;;;;;7.70;7.00;;;;;;;22.64;84.63;99409.73;90985;1280;137796;-65
2023/07/02 23:54:49;;;;;;;5.50;5.20;;;;;;;22.63;84.71;99411.54;91087;1276;22193;-65
2023/07/02 23:56:51;;;;;;;6.70;5.90;;;;;;;22.63;84.77;99414.70;90885;1272;139070;-66
2023/07/02 23:58:53;;;;;;;6.40;6.00;;;;;;;22.62;84.85;99414.17;91076;1272;22479;-66
